Time;durP1;ratioP1;P1;durP2;ratioP2;P2;SDS_P1;SDS_P2;PMS_P1;PMS_P2;Temp;Humidity;BMP_temperature;BMP_pressure;BME280_temperature;BME280_humidity;BME280_pressure;Samples;Min_cycle;Max_cycle;Signal;HPM_P1;HPM_P2
2020/12/29 00:02:22;;;;;;;7.07;3.35;;;4.20;90.80;;;;;;5042255;28;20013;-58
2020/12/29 00:04:47;;;;;;;5.75;3.22;;;4.20;90.80;;;;;;5037202;28;20028;-56
2020/12/29 00:07:13;;;;;;;4.97;3.05;;;4.20;90.80;;;;;;5024993;28;20400;-57
2020/12/29 00:09:38;;;;;;;5.63;3.47;;;4.20;90.80;;;;;;5036867;28;20102;-55
2020/12/29 00:12:04;;;;;;;6.10;3.80;;;4.20;90.80;;;;;;5041463;28;20564;-56
2020/12/29 00:14:29;;;;;;;4.68;3.22;;;4.20;90.80;;;;;;5036232;28;20037;-58
2020/12/29 00:16:55;;;;;;;5.85;3.35;;;4.10;90.80;;;;;;5042185;28;20029;-58
2020/12/29 00:19:21;;;;;;;5.47;3.03;;;4.20;90.80;;;;;;5036104;28;20030;-56
2020/12/29 00:21:47;;;;;;;4.20;3.10;;;4.20;90.80;;;;;;5045423;28;20025;-57
2020/12/29 00:24:13;;;;;;;5.38;3.08;;;4.20;90.80;;;;;;5034899;28;20393;-57
2020/12/29 00:26:38;;;;;;;5.57;3.00;;;4.20;90.80;;;;;;5040255;28;20021;-56
2020/12/29 00:29:04;;;;;;;6.85;3.33;;;4.20;90.80;;;;;;5035054;28;20025;-57
2020/12/29 00:31:29;;;;;;;8.13;3.40;;;4.20;90.80;;;;;;5046805;28;20100;-55
2020/12/29 00:33:56;;;;;;;4.30;3.03;;;4.10;90.70;;;;;;5020293;28;20045;-57
2020/12/29 00:36:21;;;;;;;6.38;3.45;;;4.20;90.70;;;;;;5031962;28;20068;-57
2020/12/29 00:38:47;;;;;;;4.82;3.05;;;4.20;90.70;;;;;;5020094;28;20461;-55
2020/12/29 00:41:13;;;;;;;6.95;3.35;;;4.20;90.70;;;;;;5025718;28;20551;-57
2020/12/29 00:43:38;;;;;;;5.15;3.00;;;4.10;90.70;;;;;;5019229;28;20463;-56
2020/12/29 00:46:11;;;;;;;5.07;2.78;;;4.10;90.80;;;;;;5025891;28;20033;-58
2020/12/29 00:48:37;;;;;;;5.45;3.00;;;4.10;90.70;;;;;;5020530;28;20072;-56
2020/12/29 00:51:07;;;;;;;4.90;2.88;;;4.20;90.80;;;;;;5043505;28;20056;-57
2020/12/29 00:53:33;;;;;;;5.22;2.88;;;4.20;90.70;;;;;;5021131;28;20465;-56
2020/12/29 00:56:03;;;;;;;4.93;2.92;;;4.10;90.70;;;;;;5029365;28;20029;-58
2020/12/29 00:58:28;;;;;;;6.75;3.05;;;4.10;90.80;;;;;;5018399;28;20496;-56
2020/12/29 01:00:54;;;;;;;5.75;2.75;;;4.10;90.80;;;;;;5046848;28;20029;-61
2020/12/29 01:03:19;;;;;;;4.50;3.00;;;4.10;90.80;;;;;;5008333;28;20022;-58
2020/12/29 01:05:45;;;;;;;5.75;3.10;;;4.10;90.80;;;;;;5030016;28;20025;-58
2020/12/29 01:08:11;;;;;;;4.63;2.90;;;4.10;90.80;;;;;;5025585;28;20121;-58
2020/12/29 01:10:36;;;;;;;5.03;2.85;;;4.10;91.10;;;;;;5048884;28;20129;-56
2020/12/29 01:13:02;;;;;;;5.28;3.00;;;4.10;90.80;;;;;;5041884;28;20404;-56
2020/12/29 01:15:27;;;;;;;4.72;2.60;;;4.00;90.80;;;;;;5028931;28;20528;-56
2020/12/29 01:17:53;;;;;;;4.55;2.88;;;4.10;90.80;;;;;;5043988;28;20057;-56
2020/12/29 01:20:18;;;;;;;5.78;2.83;;;4.10;90.80;;;;;;5039314;28;20060;-56
2020/12/29 01:22:44;;;;;;;4.72;3.45;;;4.10;90.80;;;;;;5047561;28;20582;-56
2020/12/29 01:25:09;;;;;;;3.63;2.63;;;4.10;90.80;;;;;;5049777;28;20044;-58
2020/12/29 01:27:35;;;;;;;4.25;2.65;;;4.10;90.80;;;;;;5012971;28;20055;-56
2020/12/29 01:30:03;;;;;;;5.25;3.10;;;4.10;90.80;;;;;;5026827;28;20121;-56
2020/12/29 01:32:29;;;;;;;3.50;2.65;;;4.10;90.80;;;;;;5046354;28;20025;-57
2020/12/29 01:34:55;;;;;;;3.70;2.42;;;4.10;90.80;;;;;;5055453;28;20431;-57
2020/12/29 01:37:20;;;;;;;6.30;2.75;;;4.00;90.80;;;;;;5027723;28;20085;-58
2020/12/29 01:39:46;;;;;;;3.17;2.65;;;4.10;90.80;;;;;;5048840;28;20091;-58
2020/12/29 01:42:11;;;;;;;6.15;3.28;;;4.10;90.80;;;;;;5047334;28;20025;-56
2020/12/29 01:44:37;;;;;;;4.70;3.05;;;4.10;90.80;;;;;;5029794;28;20082;-57
2020/12/29 01:47:03;;;;;;;4.38;2.80;;;4.10;90.80;;;;;;5047629;28;20028;-56
2020/12/29 01:49:28;;;;;;;4.38;2.92;;;4.00;90.80;;;;;;5031858;28;20469;-57
2020/12/29 01:51:54;;;;;;;4.05;2.63;;;4.00;90.80;;;;;;5045848;28;20045;-58
2020/12/29 01:54:19;;;;;;;3.95;2.80;;;4.00;90.80;;;;;;5050100;28;20025;-58
2020/12/29 01:56:45;;;;;;;4.28;2.60;;;4.00;90.80;;;;;;5029723;28;20040;-56
2020/12/29 01:59:13;;;;;;;4.30;2.50;;;4.00;90.70;;;;;;5024304;28;20026;-57
2020/12/29 02:01:39;;;;;;;4.05;2.33;;;4.00;90.70;;;;;;5028542;28;20013;-58
2020/12/29 02:04:06;;;;;;;5.57;3.08;;;4.10;90.80;;;;;;5030708;28;20033;-57
2020/12/29 02:06:33;;;;;;;5.43;3.10;;;4.00;90.70;;;;;;5031688;28;20029;-58
2020/12/29 02:08:59;;;;;;;3.67;2.35;;;4.00;90.80;;;;;;5023912;28;20059;-56
2020/12/29 02:11:25;;;;;;;5.90;2.72;;;4.00;90.80;;;;;;5029257;28;20111;-56
2020/12/29 02:13:51;;;;;;;4.38;2.65;;;4.00;90.70;;;;;;5023984;28;20160;-56
2020/12/29 02:16:16;;;;;;;4.85;2.92;;;4.00;90.80;;;;;;5044607;28;20107;-56
2020/12/29 02:18:42;;;;;;;4.03;2.55;;;4.00;90.80;;;;;;5057481;28;20379;-56
2020/12/29 02:21:08;;;;;;;3.88;2.60;;;4.00;90.80;;;;;;5051207;28;20476;-57
2020/12/29 02:23:33;;;;;;;3.25;2.10;;;4.00;90.80;;;;;;5033290;28;20463;-57
2020/12/29 02:25:59;;;;;;;3.80;2.28;;;4.00;90.80;;;;;;5050199;28;20484;-56
2020/12/29 02:28:24;;;;;;;5.90;1.80;;;4.00;90.80;;;;;;5047733;28;20577;-58
2020/12/29 02:30:50;;;;;;;3.83;2.30;;;4.00;91.20;;;;;;5023810;28;20025;-57
2020/12/29 02:33:15;;;;;;;3.05;2.22;;;4.00;91.00;;;;;;5055808;28;20130;-57
2020/12/29 02:35:40;;;;;;;4.35;2.20;;;4.00;90.90;;;;;;5029576;28;20044;-56
2020/12/29 02:38:06;;;;;;;4.00;2.20;;;4.00;90.90;;;;;;5049599;28;20032;-57
2020/12/29 02:40:31;;;;;;;2.45;1.65;;;4.00;90.90;;;;;;5045933;28;20095;-56
2020/12/29 02:42:57;;;;;;;3.17;2.03;;;4.00;90.90;;;;;;5047945;28;20461;-60
2020/12/29 02:45:23;;;;;;;3.00;2.30;;;4.00;90.90;;;;;;5046991;28;20051;-57
2020/12/29 02:47:48;;;;;;;5.68;2.00;;;4.00;90.90;;;;;;5038767;28;20097;-56
2020/12/29 02:50:13;;;;;;;3.83;1.88;;;4.10;90.90;;;;;;5047052;28;20049;-58
2020/12/29 02:52:39;;;;;;;2.80;2.00;;;4.10;90.90;;;;;;5048539;28;20114;-58
2020/12/29 02:55:05;;;;;;;3.88;2.20;;;4.10;90.90;;;;;;5030919;28;20553;-61
2020/12/29 02:57:30;;;;;;;3.40;2.00;;;4.10;90.80;;;;;;5032431;28;20123;-57
2020/12/29 02:59:56;;;;;;;2.50;1.92;;;4.10;90.80;;;;;;5048900;28;20036;-60
2020/12/29 03:02:21;;;;;;;4.18;1.77;;;4.10;90.80;;;;;;5049705;28;20029;-57
2020/12/29 03:04:47;;;;;;;2.92;1.77;;;4.10;90.80;;;;;;5030390;28;20033;-57
2020/12/29 03:07:13;;;;;;;3.63;1.77;;;4.10;90.80;;;;;;5052049;28;20226;-57
2020/12/29 03:09:38;;;;;;;2.63;1.85;;;4.10;91.10;;;;;;5023029;28;20197;-57
2020/12/29 03:12:04;;;;;;;3.90;1.90;;;4.10;90.80;;;;;;5044947;28;20025;-55
2020/12/29 03:14:29;;;;;;;2.00;1.80;;;4.10;90.80;;;;;;5030463;28;20366;-56
2020/12/29 03:16:55;;;;;;;3.05;1.88;;;4.10;90.70;;;;;;5041896;28;20389;-56
2020/12/29 03:19:22;;;;;;;2.53;1.70;;;4.10;90.70;;;;;;5054875;28;20029;-56
2020/12/29 03:21:47;;;;;;;2.90;1.70;;;4.10;90.70;;;;;;5031278;28;20233;-56
2020/12/29 03:24:13;;;;;;;3.13;1.80;;;4.10;90.70;;;;;;5030500;28;20451;-57
2020/12/29 03:26:39;;;;;;;2.30;1.80;;;4.20;90.80;;;;;;5049027;28;20031;-56
2020/12/29 03:29:04;;;;;;;3.10;1.63;;;4.10;90.70;;;;;;5044648;28;20468;-56
2020/12/29 03:31:30;;;;;;;3.20;1.80;;;4.10;90.70;;;;;;5046370;28;20096;-56
2020/12/29 03:33:55;;;;;;;3.40;1.58;;;4.10;90.70;;;;;;5046819;28;20053;-57
2020/12/29 03:36:21;;;;;;;3.35;1.90;;;4.30;90.70;;;;;;5031176;28;20212;-58
2020/12/29 03:38:46;;;;;;;2.70;1.75;;;4.10;90.60;;;;;;5047142;28;20025;-56
2020/12/29 03:41:12;;;;;;;2.70;1.85;;;4.10;90.60;;;;;;5030210;28;20108;-58
2020/12/29 03:43:37;;;;;;;3.70;1.70;;;4.10;90.60;;;;;;5044391;28;20032;-59
2020/12/29 03:46:03;;;;;;;2.60;1.50;;;4.10;90.60;;;;;;5048842;28;20033;-56
2020/12/29 03:48:28;;;;;;;3.20;1.77;;;4.10;90.60;;;;;;5047301;28;20393;-57
2020/12/29 03:50:54;;;;;;;5.45;1.50;;;4.10;90.60;;;;;;5048803;28;20032;-57
2020/12/29 03:53:20;;;;;;;2.78;1.70;;;4.10;90.60;;;;;;5046791;28;20484;-58
2020/12/29 03:55:45;;;;;;;2.53;1.20;;;4.10;90.60;;;;;;5048160;28;20044;-57
2020/12/29 03:58:11;;;;;;;2.10;1.40;;;4.10;90.60;;;;;;5047473;28;20664;-58
2020/12/29 04:00:37;;;;;;;2.22;1.50;;;4.10;90.60;;;;;;5031197;28;20099;-56
2020/12/29 04:03:03;;;;;;;2.25;1.48;;;4.20;90.60;;;;;;5029808;28;20108;-58
2020/12/29 04:05:29;;;;;;;2.35;1.60;;;4.10;90.60;;;;;;5030067;28;20755;-58
2020/12/29 04:07:55;;;;;;;2.20;1.67;;;4.10;90.50;;;;;;5046816;28;20096;-61
2020/12/29 04:10:20;;;;;;;3.05;1.70;;;4.10;90.50;;;;;;5022762;28;20134;-58
2020/12/29 04:12:46;;;;;;;3.33;1.60;;;4.20;90.50;;;;;;5044787;28;20119;-59
2020/12/29 04:15:11;;;;;;;3.08;1.85;;;4.20;90.50;;;;;;5048108;28;20104;-57
2020/12/29 04:17:38;;;;;;;2.05;1.40;;;4.10;90.50;;;;;;5028606;28;20072;-56
2020/12/29 04:20:05;;;;;;;2.80;1.48;;;4.20;90.50;;;;;;5020906;28;20038;-56
2020/12/29 04:22:31;;;;;;;3.63;1.45;;;4.20;90.50;;;;;;5021865;28;20113;-57
2020/12/29 04:24:57;;;;;;;2.55;1.48;;;4.10;90.40;;;;;;5041920;28;20044;-56
2020/12/29 04:27:23;;;;;;;2.28;1.60;;;4.10;90.40;;;;;;5039794;28;20105;-57
2020/12/29 04:29:49;;;;;;;2.30;1.40;;;4.20;90.50;;;;;;5031726;28;20539;-56
2020/12/29 04:32:14;;;;;;;4.45;1.50;;;4.20;90.50;;;;;;5037632;28;20500;-57
2020/12/29 04:34:40;;;;;;;3.40;1.50;;;4.20;90.50;;;;;;5023487;28;20069;-58
2020/12/29 04:37:06;;;;;;;2.67;1.50;;;4.20;90.50;;;;;;5038872;28;20017;-56
2020/12/29 04:39:31;;;;;;;2.13;1.30;;;4.20;90.40;;;;;;5041767;28;20048;-58
2020/12/29 04:42:03;;;;;;;2.65;1.30;;;4.20;90.40;;;;;;5020209;28;20101;-57
2020/12/29 04:44:29;;;;;;;2.22;1.00;;;4.20;90.40;;;;;;5016617;28;20132;-55
2020/12/29 04:46:54;;;;;;;2.45;1.38;;;4.20;90.50;;;;;;5020459;28;20105;-57
2020/12/29 04:49:21;;;;;;;2.25;1.42;;;4.20;90.50;;;;;;5040215;28;20047;-56
2020/12/29 04:51:47;;;;;;;3.47;1.45;;;4.20;90.40;;;;;;5020545;28;20083;-56
2020/12/29 04:54:13;;;;;;;1.52;1.10;;;4.20;90.40;;;;;;5022608;28;20028;-58
2020/12/29 04:56:39;;;;;;;4.70;1.20;;;4.20;90.40;;;;;;5019567;28;20108;-56
2020/12/29 04:59:04;;;;;;;1.63;1.25;;;4.20;90.40;;;;;;5022546;28;20109;-57
2020/12/29 05:01:31;;;;;;;2.20;1.10;;;4.20;90.40;;;;;;5038247;28;20124;-57
2020/12/29 05:03:57;;;;;;;2.05;1.23;;;4.20;90.40;;;;;;5041100;28;20055;-56
2020/12/29 05:06:22;;;;;;;1.92;1.13;;;4.20;90.40;;;;;;5009255;28;20032;-58
2020/12/29 05:08:54;;;;;;;2.63;1.20;;;4.20;90.40;;;;;;5030355;28;20064;-58
2020/12/29 05:11:24;;;;;;;3.22;1.30;;;4.20;90.50;;;;;;5046289;28;20029;-58
2020/12/29 05:13:49;;;;;;;1.50;1.00;;;4.20;90.40;;;;;;5025735;28;20029;-56
2020/12/29 05:16:15;;;;;;;6.68;1.50;;;4.20;90.40;;;;;;5028931;28;20481;-56
2020/12/29 05:18:41;;;;;;;1.23;1.00;;;4.20;90.50;;;;;;5024284;28;20036;-56
2020/12/29 05:21:06;;;;;;;2.10;0.95;;;4.20;90.40;;;;;;5026133;28;20029;-56
2020/12/29 05:23:32;;;;;;;1.73;1.25;;;4.20;90.50;;;;;;5024512;28;20482;-56
2020/12/29 05:25:58;;;;;;;1.58;1.10;;;4.30;90.50;;;;;;5022444;28;20021;-57
2020/12/29 05:28:26;;;;;;;2.88;1.35;;;4.20;90.40;;;;;;5028875;28;20389;-57
2020/12/29 05:30:53;;;;;;;2.25;1.30;;;4.20;90.50;;;;;;5028096;28;20025;-57
2020/12/29 05:33:19;;;;;;;2.30;1.00;;;4.20;90.40;;;;;;5040442;28;20060;-58
2020/12/29 05:35:44;;;;;;;2.70;1.15;;;4.20;90.50;;;;;;5028216;28;20461;-55
2020/12/29 05:38:10;;;;;;;3.25;1.30;;;4.20;90.50;;;;;;5042889;28;20026;-57
2020/12/29 05:40:36;;;;;;;3.28;1.42;;;4.30;90.50;;;;;;5025592;28;20026;-56
2020/12/29 05:43:01;;;;;;;2.88;1.02;;;4.20;90.50;;;;;;5048468;28;20033;-58
2020/12/29 05:45:28;;;;;;;3.17;1.30;;;4.30;90.60;;;;;;5047923;28;20112;-56
2020/12/29 05:47:54;;;;;;;2.60;1.08;;;4.30;90.60;;;;;;5020939;28;20026;-58
2020/12/29 05:50:20;;;;;;;1.63;1.10;;;4.30;90.60;;;;;;5031730;28;20023;-56
2020/12/29 05:52:50;;;;;;;2.38;1.13;;;4.20;90.60;;;;;;5020972;28;20026;-56
2020/12/29 05:55:15;;;;;;;1.92;1.05;;;4.20;90.60;;;;;;5028354;28;20026;-58
2020/12/29 05:57:41;;;;;;;2.35;1.23;;;4.30;90.70;;;;;;5027180;28;20400;-56
2020/12/29 06:00:06;;;;;;;3.10;1.20;;;4.30;90.70;;;;;;5027574;28;20030;-57
2020/12/29 06:02:32;;;;;;;4.30;1.42;;;4.20;90.80;;;;;;5046917;28;20103;-56
2020/12/29 06:04:57;;;;;;;3.30;1.40;;;4.30;90.70;;;;;;5031617;28;20523;-56
2020/12/29 06:07:24;;;;;;;3.97;1.30;;;4.20;90.80;;;;;;5027071;28;20108;-56
2020/12/29 06:09:49;;;;;;;2.35;1.25;;;4.20;90.70;;;;;;5025537;28;20045;-56
2020/12/29 06:12:17;;;;;;;2.35;1.25;;;4.30;90.80;;;;;;5021317;28;20018;-56
2020/12/29 06:14:47;;;;;;;3.15;1.08;;;4.30;90.80;;;;;;5026746;28;20048;-57
2020/12/29 06:17:16;;;;;;;2.88;1.17;;;4.30;90.90;;;;;;5039746;28;20014;-59
2020/12/29 06:19:47;;;;;;;2.35;1.27;;;4.30;90.80;;;;;;5042702;28;20506;-56
2020/12/29 06:22:12;;;;;;;2.50;1.08;;;4.30;90.90;;;;;;5012040;28;20041;-58
2020/12/29 06:24:45;;;;;;;3.03;1.40;;;4.30;90.90;;;;;;5042260;28;21419;-56
2020/12/29 06:27:11;;;;;;;3.70;1.15;;;4.30;90.90;;;;;;5027665;28;20495;-58
2020/12/29 06:29:38;;;;;;;1.95;1.17;;;4.30;90.90;;;;;;5025035;28;20029;-57
2020/12/29 06:32:17;;;;;;;4.13;1.92;;;4.30;90.90;;;;;;5041974;28;20392;-57
2020/12/29 06:34:43;;;;;;;4.78;1.63;;;4.30;91.00;;;;;;5021381;28;20232;-58
2020/12/29 06:37:25;;;;;;;4.30;1.60;;;4.40;91.00;;;;;;5026108;28;20055;-58
2020/12/29 06:39:59;;;;;;;1.60;1.10;;;4.30;91.00;;;;;;5045453;28;20025;-58
2020/12/29 06:42:25;;;;;;;3.13;1.55;;;4.30;91.00;;;;;;5025287;28;20047;-57
2020/12/29 06:44:57;;;;;;;6.18;1.30;;;4.30;91.00;;;;;;5007025;28;20025;-56
2020/12/29 06:47:24;;;;;;;5.20;1.42;;;4.30;90.90;;;;;;5022615;28;20280;-58
2020/12/29 06:49:50;;;;;;;2.58;1.20;;;4.30;90.90;;;;;;5023504;28;20017;-57
2020/12/29 06:52:17;;;;;;;3.33;1.25;;;4.30;90.90;;;;;;5041813;28;20037;-56
2020/12/29 06:54:52;;;;;;;3.83;1.60;;;4.30;90.90;;;;;;5045868;28;20039;-56
2020/12/29 06:57:21;;;;;;;;;;;4.30;90.80;;;;;;5009112;28;20025;-56
2020/12/29 06:59:46;;;;;;;4.28;1.45;;;4.30;90.80;;;;;;5025951;28;20001;-57
2020/12/29 07:02:20;;;;;;;4.00;1.50;;;4.30;90.80;;;;;;5041659;28;20496;-58
2020/12/29 07:04:50;;;;;;;1.98;1.00;;;4.30;90.80;;;;;;5017793;28;20041;-56
2020/12/29 07:07:32;;;;;;;2.88;1.50;;;4.30;90.80;;;;;;5041526;28;20025;-58
2020/12/29 07:10:10;;;;;;;2.58;1.25;;;4.30;90.80;;;;;;5007633;28;20130;-57
2020/12/29 07:12:35;;;;;;;2.67;1.30;;;4.30;90.90;;;;;;5023734;28;20127;-57
2020/12/29 07:15:02;;;;;;;2.97;1.38;;;4.30;90.90;;;;;;5024245;28;20620;-57
2020/12/29 07:17:28;;;;;;;2.13;1.27;;;4.30;90.90;;;;;;5024864;28;20017;-61
2020/12/29 07:19:54;;;;;;;3.83;1.27;;;4.30;90.90;;;;;;5021780;28;20416;-58
2020/12/29 07:22:20;;;;;;;3.63;1.35;;;4.30;90.90;;;;;;5041642;28;20036;-56
2020/12/29 07:24:46;;;;;;;4.22;1.33;;;4.30;90.90;;;;;;5026375;28;20037;-56
2020/12/29 07:27:11;;;;;;;3.38;1.30;;;4.30;90.90;;;;;;5028999;28;20029;-58
2020/12/29 07:29:50;;;;;;;2.97;1.45;;;4.30;91.00;;;;;;5010490;28;20366;-57
2020/12/29 07:32:17;;;;;;;2.45;1.10;;;4.40;91.00;;;;;;5043508;28;20448;-58
2020/12/29 07:34:43;;;;;;;3.15;1.38;;;4.40;91.00;;;;;;5038496;28;20346;-57
2020/12/29 07:37:08;;;;;;;4.60;1.38;;;4.40;91.00;;;;;;5024008;28;20033;-58
2020/12/29 07:39:34;;;;;;;2.50;1.20;;;4.40;91.00;;;;;;5020153;28;20061;-56
2020/12/29 07:41:59;;;;;;;5.07;1.52;;;4.40;91.00;;;;;;5025430;28;20520;-56
2020/12/29 07:44:25;;;;;;;2.47;1.20;;;4.40;91.00;;;;;;5018744;28;20034;-57
2020/12/29 07:46:50;;;;;;;4.40;1.27;;;4.40;91.00;;;;;;5042172;28;20094;-57
2020/12/29 07:49:16;;;;;;;3.30;1.55;;;4.40;91.00;;;;;;5037657;28;20104;-58
2020/12/29 07:51:47;;;;;;;3.22;1.40;;;4.40;91.00;;;;;;5024881;28;20476;-58
2020/12/29 07:54:13;;;;;;;2.28;1.25;;;4.40;91.00;;;;;;5022038;28;20386;-55
2020/12/29 07:56:38;;;;;;;5.72;1.50;;;4.50;91.00;;;;;;5049237;28;20033;-58
2020/12/29 07:59:08;;;;;;;2.67;1.38;;;4.40;90.90;;;;;;5018488;28;20030;-56
2020/12/29 08:01:46;;;;;;;4.05;1.90;;;4.50;90.90;;;;;;5022915;28;20466;-56
2020/12/29 08:04:27;;;;;;;3.13;1.30;;;4.50;90.90;;;;;;5021426;28;20036;-56
2020/12/29 08:06:53;;;;;;;4.50;1.58;;;4.50;91.00;;;;;;5022252;28;20040;-57
2020/12/29 08:09:18;;;;;;;7.40;1.10;;;4.50;91.00;;;;;;5022953;28;20508;-58
2020/12/29 08:11:44;;;;;;;7.65;1.10;;;4.60;91.10;;;;;;5021230;28;20056;-57
2020/12/29 08:14:11;;;;;;;4.00;1.58;;;4.50;91.20;;;;;;5020597;28;20060;-57
2020/12/29 08:16:36;;;;;;;8.98;1.50;;;4.60;91.20;;;;;;5021372;28;20021;-57
2020/12/29 08:19:02;;;;;;;5.70;1.35;;;4.60;91.30;;;;;;5039427;28;20128;-58
2020/12/29 08:21:29;;;;;;;9.48;1.45;;;4.60;91.40;;;;;;5039336;28;20037;-59
2020/12/29 08:23:56;;;;;;;11.23;1.60;;;4.60;91.30;;;;;;5007362;28;20031;-58
2020/12/29 08:26:22;;;;;;;5.40;1.73;;;4.60;91.40;;;;;;5020428;28;20041;-57
2020/12/29 08:28:48;;;;;;;10.93;1.75;;;4.70;91.40;;;;;;5026841;28;20071;-57
2020/12/29 08:31:13;;;;;;;12.90;2.20;;;4.60;91.30;;;;;;5021492;28;20551;-58
2020/12/29 08:33:39;;;;;;;5.18;1.60;;;4.70;91.30;;;;;;5020727;28;20044;-56
2020/12/29 08:36:04;;;;;;;11.75;2.17;;;4.60;91.20;;;;;;5021315;28;20030;-56
2020/12/29 08:38:39;;;;;;;5.35;1.40;;;4.70;91.20;;;;;;5019776;28;20061;-57
2020/12/29 08:41:04;;;;;;;5.40;1.38;;;4.70;91.30;;;;;;5020439;28;20029;-57
2020/12/29 08:43:29;;;;;;;6.70;1.35;;;4.70;91.30;;;;;;5038994;28;20021;-58
2020/12/29 08:46:05;;;;;;;10.75;2.15;;;4.70;91.30;;;;;;5025180;28;20101;-57
2020/12/29 08:48:30;;;;;;;4.72;1.63;;;4.70;91.30;;;;;;5028299;28;20112;-58
2020/12/29 08:50:57;;;;;;;8.88;1.55;;;4.80;91.30;;;;;;5024946;28;20112;-58
2020/12/29 08:53:26;;;;;;;12.32;2.22;;;4.80;91.30;;;;;;5029034;28;20040;-58
2020/12/29 08:55:51;;;;;;;7.05;1.65;;;4.80;91.40;;;;;;5041471;28;20025;-56
2020/12/29 08:58:24;;;;;;;5.00;1.50;;;4.80;91.30;;;;;;5021729;28;20449;-57
2020/12/29 09:00:49;;;;;;;4.00;1.30;;;4.80;91.20;;;;;;5045825;28;20112;-56
2020/12/29 09:03:22;;;;;;;5.55;1.40;;;4.80;91.20;;;;;;5026038;28;20108;-57
2020/12/29 09:05:54;;;;;;;4.18;1.70;;;4.80;91.30;;;;;;5027449;28;20104;-57
2020/12/29 09:08:30;;;;;;;9.57;1.50;;;4.80;91.30;;;;;;5018781;28;20021;-57
2020/12/29 09:11:11;;;;;;;5.78;1.50;;;4.80;91.30;;;;;;5040552;28;20530;-58
2020/12/29 09:13:37;;;;;;;5.53;1.30;;;4.80;91.40;;;;;;5023833;28;20469;-57
2020/12/29 09:16:12;;;;;;;5.00;1.30;;;4.80;91.40;;;;;;5045980;28;20017;-57
2020/12/29 09:18:39;;;;;;;;;;;4.90;91.50;;;;;;5041902;28;20025;-57
2020/12/29 09:21:24;;;;;;;3.38;1.08;;;4.80;91.50;;;;;;5032088;28;20332;-56
2020/12/29 09:23:59;;;;;;;3.77;1.13;;;4.90;91.50;;;;;;5031381;28;20033;-56
2020/12/29 09:26:24;;;;;;;3.05;1.17;;;4.90;91.60;;;;;;5044853;28;20481;-56
2020/12/29 09:28:50;;;;;;;3.83;1.00;;;4.90;91.50;;;;;;5025457;28;20041;-57
2020/12/29 09:31:15;;;;;;;1.75;1.13;;;4.90;91.60;;;;;;5025287;28;20029;-57
2020/12/29 09:33:41;;;;;;;2.42;1.10;;;4.90;91.60;;;;;;5048575;28;20504;-55
2020/12/29 09:36:16;;;;;;;4.05;1.45;;;5.00;91.60;;;;;;5044384;28;20029;-57
2020/12/29 09:38:42;;;;;;;2.72;1.35;;;4.90;91.50;;;;;;5023635;28;20067;-57
2020/12/29 09:41:07;;;;;;;5.28;1.25;;;4.90;91.60;;;;;;5043257;28;20475;-57
2020/12/29 09:43:33;;;;;;;4.30;1.38;;;5.00;91.60;;;;;;5051221;28;20102;-57
2020/12/29 09:45:58;;;;;;;6.70;1.10;;;5.00;91.60;;;;;;5049588;28;20102;-56
2020/12/29 09:48:24;;;;;;;3.83;1.50;;;5.00;91.60;;;;;;5051901;28;20118;-56
2020/12/29 09:50:50;;;;;;;3.45;1.30;;;5.00;91.60;;;;;;5033295;28;20040;-58
2020/12/29 09:53:15;;;;;;;6.22;1.40;;;5.10;91.60;;;;;;5047204;28;20029;-56
2020/12/29 09:55:41;;;;;;;6.97;1.48;;;5.10;91.70;;;;;;5031814;28;20469;-56
2020/12/29 09:58:06;;;;;;;9.80;1.70;;;5.10;91.60;;;;;;5025621;28;20021;-57
2020/12/29 10:00:32;;;;;;;2.88;1.52;;;5.10;91.60;;;;;;5016205;28;20220;-57
2020/12/29 10:02:58;;;;;;;3.33;1.80;;;5.10;91.60;;;;;;5033102;28;20035;-57
2020/12/29 10:05:24;;;;;;;4.75;1.67;;;5.10;91.60;;;;;;5032366;28;20029;-57
2020/12/29 10:07:50;;;;;;;8.48;1.90;;;5.10;91.60;;;;;;5051717;28;20070;-58
2020/12/29 10:10:15;;;;;;;5.78;1.45;;;5.10;91.60;;;;;;5033420;28;20033;-56
2020/12/29 10:12:41;;;;;;;10.25;2.08;;;5.10;91.60;;;;;;5051621;28;20484;-56
2020/12/29 10:15:06;;;;;;;3.05;1.20;;;5.20;91.80;;;;;;5032710;28;20066;-59
2020/12/29 10:17:32;;;;;;;5.97;1.90;;;5.20;91.70;;;;;;5050439;28;20065;-58
2020/12/29 10:19:58;;;;;;;4.43;1.60;;;5.20;91.80;;;;;;5031763;28;20024;-56
2020/12/29 10:22:25;;;;;;;5.22;2.00;;;5.20;91.80;;;;;;5024860;28;20039;-58
2020/12/29 10:24:51;;;;;;;2.90;1.73;;;5.30;91.90;;;;;;5033297;28;20476;-57
2020/12/29 10:27:16;;;;;;;4.10;1.70;;;5.30;92.00;;;;;;5050777;28;20392;-58
2020/12/29 10:29:42;;;;;;;5.65;1.60;;;5.30;92.00;;;;;;5023818;28;20048;-57
2020/12/29 10:32:07;;;;;;;8.13;1.88;;;5.30;91.90;;;;;;5050931;28;20036;-58
2020/12/29 10:34:33;;;;;;;3.88;1.55;;;5.30;91.90;;;;;;5050788;28;20037;-57
2020/12/29 10:36:58;;;;;;;4.28;1.33;;;5.30;91.90;;;;;;5051142;28;20028;-57
2020/12/29 10:39:24;;;;;;;6.05;1.52;;;5.30;91.90;;;;;;5033190;28;20025;-58
2020/12/29 10:41:49;;;;;;;3.25;1.40;;;5.30;91.90;;;;;;5048830;28;20033;-58
2020/12/29 10:44:15;;;;;;;2.40;1.55;;;5.20;91.90;;;;;;5028793;28;20465;-57
2020/12/29 10:46:45;;;;;;;4.35;1.70;;;5.30;91.90;;;;;;5049739;28;20033;-58
2020/12/29 10:49:10;;;;;;;5.25;1.83;;;5.30;91.90;;;;;;5049566;28;20083;-56
2020/12/29 10:51:35;;;;;;;3.22;1.65;;;5.30;91.90;;;;;;5049925;28;20104;-57
2020/12/29 10:54:01;;;;;;;3.63;1.90;;;5.30;91.90;;;;;;5047112;28;20486;-57
2020/12/29 10:56:26;;;;;;;5.95;1.70;;;5.30;91.90;;;;;;5046982;28;20070;-57
2020/12/29 10:58:52;;;;;;;3.55;2.13;;;5.30;92.00;;;;;;5046674;28;20033;-58
2020/12/29 11:01:20;;;;;;;4.18;1.58;;;5.30;92.10;;;;;;5048694;28;20025;-56
2020/12/29 11:03:45;;;;;;;5.63;1.90;;;5.40;92.10;;;;;;5046028;28;20022;-58
2020/12/29 11:06:13;;;;;;;4.32;1.92;;;5.40;92.00;;;;;;5046888;28;20340;-58
2020/12/29 11:08:38;;;;;;;4.70;1.85;;;5.40;92.10;;;;;;5045126;28;20022;-59
2020/12/29 11:11:04;;;;;;;5.68;1.90;;;5.40;92.10;;;;;;5048071;28;20033;-58
2020/12/29 11:13:29;;;;;;;4.53;1.67;;;5.40;92.20;;;;;;5044582;28;20025;-58
2020/12/29 11:15:55;;;;;;;3.75;1.90;;;5.40;92.10;;;;;;5048102;28;20033;-57
2020/12/29 11:18:20;;;;;;;3.83;1.83;;;5.40;91.90;;;;;;5036612;28;20029;-57
2020/12/29 11:20:49;;;;;;;4.18;1.70;;;5.40;91.80;;;;;;5030351;28;20067;-56
2020/12/29 11:23:15;;;;;;;3.55;1.50;;;5.40;91.80;;;;;;5046081;28;20025;-57
2020/12/29 11:25:40;;;;;;;8.13;1.92;;;5.40;91.80;;;;;;5048731;28;20071;-58
2020/12/29 11:28:06;;;;;;;8.57;1.90;;;5.40;91.90;;;;;;5046117;28;20060;-58
2020/12/29 11:30:31;;;;;;;5.72;1.67;;;5.40;92.00;;;;;;5039275;28;20473;-57
2020/12/29 11:32:57;;;;;;;2.97;1.67;;;5.40;91.80;;;;;;5028145;28;20060;-57
2020/12/29 11:35:22;;;;;;;3.47;1.80;;;5.40;91.80;;;;;;5030017;28;20059;-58
2020/12/29 11:37:48;;;;;;;4.32;1.73;;;5.40;91.90;;;;;;5045603;28;20053;-58
2020/12/29 11:40:13;;;;;;;4.57;1.77;;;5.50;91.80;;;;;;5047128;28;20111;-57
2020/12/29 11:42:39;;;;;;;4.78;1.60;;;5.50;91.70;;;;;;5043989;28;20548;-58
2020/12/29 11:45:04;;;;;;;7.03;1.52;;;5.50;91.60;;;;;;5029503;28;20029;-57
2020/12/29 11:47:30;;;;;;;4.00;1.80;;;5.50;91.40;;;;;;5028239;28;20112;-57
2020/12/29 11:49:55;;;;;;;4.25;1.65;;;5.50;91.30;;;;;;5030268;28;20503;-58
2020/12/29 11:52:23;;;;;;;6.35;1.88;;;5.50;91.50;;;;;;5046338;28;20064;-59
2020/12/29 11:54:49;;;;;;;6.70;1.75;;;5.50;91.40;;;;;;5022764;28;20037;-57
2020/12/29 11:57:14;;;;;;;2.67;1.50;;;5.50;91.40;;;;;;5040590;28;20040;-58
2020/12/29 11:59:40;;;;;;;5.57;1.70;;;5.50;91.70;;;;;;5047810;28;20025;-58
2020/12/29 12:02:06;;;;;;;2.67;1.70;;;5.60;91.80;;;;;;5047523;28;20123;-57
2020/12/29 12:04:31;;;;;;;2.78;1.60;;;5.60;91.60;;;;;;5047682;28;20017;-57
2020/12/29 12:06:57;;;;;;;3.17;1.70;;;5.60;91.60;;;;;;5044282;28;20500;-56
2020/12/29 12:09:22;;;;;;;5.82;2.30;;;5.60;91.60;;;;;;5047264;28;20037;-58
2020/12/29 12:11:48;;;;;;;5.80;1.70;;;5.60;91.90;;;;;;5045816;28;20037;-57
2020/12/29 12:14:13;;;;;;;5.50;1.95;;;5.70;91.90;;;;;;5047688;28;20035;-58
2020/12/29 12:16:39;;;;;;;3.80;2.00;;;5.70;91.90;;;;;;5027521;28;20423;-59
2020/12/29 12:19:05;;;;;;;6.75;2.00;;;5.70;91.80;;;;;;5028966;28;20067;-59
2020/12/29 12:21:31;;;;;;;4.28;1.92;;;5.70;91.70;;;;;;5045548;28;20041;-59
2020/12/29 12:23:59;;;;;;;4.00;2.08;;;5.70;91.70;;;;;;5048011;28;20473;-59
2020/12/29 12:26:25;;;;;;;3.60;1.90;;;5.70;91.70;;;;;;5028357;28;20025;-59
2020/12/29 12:28:51;;;;;;;6.13;1.85;;;5.80;91.70;;;;;;5009856;28;20398;-57
2020/12/29 12:31:16;;;;;;;4.30;1.75;;;5.70;91.70;;;;;;5041079;28;20041;-57
2020/12/29 12:33:42;;;;;;;5.93;2.08;;;5.80;91.70;;;;;;5018010;28;20049;-57
2020/12/29 12:36:08;;;;;;;2.65;1.55;;;5.80;91.70;;;;;;5036343;28;20096;-56
2020/12/29 12:38:33;;;;;;;3.13;1.70;;;5.80;91.60;;;;;;5015614;28;20345;-58
2020/12/29 12:40:59;;;;;;;3.70;1.90;;;5.80;91.50;;;;;;5037421;28;20036;-57
2020/12/29 12:43:25;;;;;;;3.65;2.40;;;5.80;91.60;;;;;;5032907;28;20033;-56
2020/12/29 12:45:50;;;;;;;4.22;2.40;;;5.80;91.60;;;;;;5039137;28;20036;-57
2020/12/29 12:48:16;;;;;;;6.63;2.60;;;5.80;91.60;;;;;;5033542;28;20025;-56
2020/12/29 12:50:41;;;;;;;6.95;2.67;;;5.80;91.60;;;;;;5040463;28;20032;-56
2020/12/29 12:53:07;;;;;;;7.28;2.40;;;5.90;91.60;;;;;;5037924;28;20029;-57
2020/12/29 12:55:35;;;;;;;7.30;2.33;;;5.90;91.50;;;;;;5041796;28;20029;-59